Flight Track Log - Related Links

Times and Time Zones

All times are in EDT time to prevent confusion due to time zone crossing. See the SKW5162 flight status page for this flight to view local times or setup timezone preferences in your user account.

Time Position Orientation Groundspeed Altitude Reporting Facility
EDT Latitude Longitude Course Direction KTS MPH feet Rate Location/Type
Sat 08:26:16 PM 29.9639 -95.3433 90° East 161 185 600  Level Houston Center
Sat 08:27:35 PM 29.9586 -95.2644 94° East 238 274 2,700 1,821 Climbing Houston Center
Sat 08:28:08 PM 29.9597 -95.2231 88° East 233 268 4,000 1,469 Climbing Houston Center
Sat 08:28:24 PM 29.9608 -95.1967 87° East 261 300 3,900 1,475 Descending Houston Center
Sat 08:29:00 PM 29.9834 -94.7670 90° East  Level FlightAware
Sat 08:29:09 PM 29.9642 -95.1378 86° East 261 300 5,500  Level Houston Center
Sat 08:30:00 PM 29.9833 -94.6254 90° East  Level FlightAware
Sat 08:30:11 PM 29.9678 -95.0508 87° East 270 311 8,300  Level Houston Center
Sat 08:31:00 PM 29.9834 -94.4838 90° East  Level FlightAware
Sat 08:31:12 PM 29.9706 -94.9597 88° East 281 323 10,500  Level Houston Center
Sat 08:32:13 PM 29.9750 -94.8514 87° East 332 382 11,900 1,623 Climbing Houston Center
Sat 08:33:14 PM 29.9792 -94.7361 88° East 354 407 13,800 1,869 Climbing Houston Center
Sat 08:34:15 PM 29.9844 -94.6144 87° East 369 425 15,700 1,805 Climbing Houston Center
Sat 08:35:17 PM 29.9892 -94.4906 87° East 382 440 17,500 1,610 Climbing Houston Center
Sat 08:36:18 PM 29.9925 -94.3664 88° East 389 448 19,000 1,475 Climbing Houston Center
Sat 08:37:19 PM 30.0039 -94.2367 84° East 404 465 20,500 1,574 Climbing Houston Center
Sat 08:38:20 PM 30.0239 -94.0794 82° East 413 475 22,200 1,415 Climbing Houston Center
Sat 08:39:22 PM 30.0400 -93.9444 82° East 424 488 23,400 1,024 Climbing Houston Center
Sat 08:40:23 PM 30.0569 -93.8067 82° East 434 499 24,300 1,033 Climbing Houston Center
Sat 08:41:24 PM 30.0736 -93.6667 82° East 443 510 25,500 1,475 Climbing Houston Center
Sat 08:42:25 PM 30.0889 -93.5258 83° East 447 514 27,300 1,574 Climbing Houston Center
Sat 08:43:26 PM 30.1047 -93.3886 82° East 440 506 28,700 1,180 Climbing Houston Center
Sat 08:44:27 PM 30.1217 -93.2517 82° East 437 503 29,700 1,122 Climbing Houston Center
Sat 08:45:29 PM 30.1517 -93.0864 78° East 443 510 31,000 1,220 Climbing Houston Center
Sat 08:46:30 PM 30.2236 -92.9711 54° Northeast 444 511 32,200 885 Climbing Houston Center
Sat 08:47:31 PM 30.2956 -92.8539 55° Northeast 448 516 32,800 738 Climbing Houston Center
Sat 08:48:32 PM 30.3661 -92.7353 55° Northeast 449 517 33,700 836 Climbing Houston Center
Sat 08:49:33 PM 30.4372 -92.6175 55° Northeast 449 517 34,500 639 Climbing Houston Center
Sat 08:50:34 PM 30.5086 -92.4994 55° Northeast 453 521 35,000 244 Climbing Houston Center
Sat 08:51:36 PM 30.5836 -92.3767 55° Northeast 462 532 35,000  Level Houston Center
Sat 08:52:37 PM 30.6794 -92.2169 55° Northeast 500 575 35,000  Level Houston Center
Sat 08:53:38 PM 30.7578 -92.0872 55° Northeast 495 570 35,000  Level Houston Center
Sat 08:54:39 PM 30.8344 -91.9594 55° Northeast 489 563 35,000  Level Houston Center
Sat 08:55:40 PM 30.9111 -91.8319 55° Northeast 485 558 35,000 197 Level Houston Center
Sat 08:56:41 PM 30.9878 -91.7036 55° Northeast 484 557 35,400 934 Climbing Houston Center
Sat 08:57:42 PM 31.0622 -91.5800 55° Northeast 474 545 36,900 787 Climbing Houston Center
Sat 08:58:43 PM 31.1339 -91.4586 55° Northeast 459 528 37,000 49 Climbing Houston Center
Sat 08:59:45 PM 31.2189 -91.3125 56° Northeast 473 544 37,000  Level Houston Center
Sat 09:00:46 PM 31.2994 -91.1756 55° Northeast 484 557 37,000  Level Houston Center
Sat 09:01:47 PM 31.3744 -91.0481 55° Northeast 495 570 37,000  Level Houston Center
Sat 09:02:48 PM 31.4519 -90.9147 56° Northeast 495 570 37,000 -49 Level Houston Center
Sat 09:03:49 PM 31.5322 -90.7772 56° Northeast 507 583 36,900 295 Descending Houston Center
Sat 09:04:50 PM 31.6117 -90.6394 56° Northeast 509 586 37,600 1,033 Climbing Houston Center
Sat 09:05:51 PM 31.6889 -90.5061 56° Northeast 496 571 39,000 689 Climbing Houston Center
Sat 09:06:52 PM 31.7639 -90.3764 56° Northeast 482 555 39,000  Level Houston Center
Sat 09:07:53 PM 31.8394 -90.2433 56° Northeast 489 563 39,000  Level Houston Center
Sat 09:08:54 PM 31.9183 -90.1067 56° Northeast 494 568 39,000  Level Houston Center
Sat 09:09:32 PM 31.9678 -90.0169 57° Northeast 488 562 39,000  Level Memphis Center
Sat 09:10:32 PM 32.0425 -89.8844 56° Northeast 488 562 39,000  Level Memphis Center
Sat 09:11:32 PM 32.1192 -89.7489 56° Northeast 488 562 39,000  Level Memphis Center
Sat 09:12:32 PM 32.1936 -89.6158 57° Northeast 488 562 39,000  Level Memphis Center
Sat 09:13:32 PM 32.2700 -89.4825 56° Northeast 488 562 39,000  Level Memphis Center
Sat 09:14:32 PM 32.3442 -89.3467 57° Northeast 488 562 39,000  Level Memphis Center
Sat 09:15:32 PM 32.4264 -89.2006 56° Northeast 488 562 39,000  Level Memphis Center
Sat 09:16:32 PM 32.5003 -89.0714 56° Northeast 488 562 39,000  Level Memphis Center
Sat 09:17:32 PM 32.5739 -88.9372 57° Northeast 488 562 39,000  Level Memphis Center
Sat 09:18:32 PM 32.6456 -88.8078 57° Northeast 488 562 39,000  Level Memphis Center
Sat 09:19:32 PM 32.7189 -88.6783 56° Northeast 488 562 39,000  Level Memphis Center
Sat 09:20:32 PM 32.7903 -88.5483 57° Northeast 483 556 39,000  Level Memphis Center
Sat 09:22:32 PM 32.9233 -88.3000 57° Northeast 496 571 39,000  Level Atlanta Center
Sat 09:23:32 PM 32.9925 -88.1672 58° Northeast 485 558 39,000  Level Atlanta Center
Sat 09:24:32 PM 33.0636 -88.0369 57° Northeast 473 544 39,000  Level Atlanta Center
Sat 09:25:32 PM 33.1325 -87.9061 58° Northeast 466 536 39,000  Level Atlanta Center
Sat 09:26:32 PM 33.2033 -87.7750 57° Northeast 466 536 39,000  Level Atlanta Center
Sat 09:27:32 PM 33.2739 -87.6439 57° Northeast 466 536 39,000  Level Atlanta Center
Sat 09:28:32 PM 33.3444 -87.5128 57° Northeast 466 536 39,000  Level Atlanta Center
Sat 09:29:32 PM 33.4150 -87.3761 58° Northeast 466 536 39,000  Level Atlanta Center
Sat 09:30:32 PM 33.4853 -87.2444 57° Northeast 466 536 39,000  Level Atlanta Center
Sat 09:31:32 PM 33.5556 -87.1147 57° Northeast 466 536 39,000  Level Atlanta Center
Sat 09:32:32 PM 33.6256 -86.9778 58° Northeast 466 536 39,000  Level Atlanta Center
Sat 09:33:32 PM 33.7058 -86.8556 52° Northeast 466 536 39,000  Level Atlanta Center
Sat 09:34:32 PM 33.8039 -86.7589 39° Northeast 452 520 39,000  Level Atlanta Center
Sat 09:35:32 PM 33.9019 -86.6617 39° Northeast 447 514 39,000  Level Atlanta Center
Sat 09:36:32 PM 34.0003 -86.5594 41° Northeast 452 520 39,000  Level Atlanta Center
Sat 09:37:32 PM 34.0961 -86.4569 42° Northeast 457 526 39,000  Level Atlanta Center
Sat 09:38:32 PM 34.1961 -86.3594 39° Northeast 457 526 39,000  Level Atlanta Center
Sat 09:39:32 PM 34.2939 -86.2589 40° Northeast 462 532 39,000  Level Atlanta Center
Sat 09:40:32 PM 34.3917 -86.1583 40° Northeast 462 532 39,000  Level Atlanta Center
Sat 09:41:32 PM 34.4914 -86.0575 40° Northeast 462 532 39,000  Level Atlanta Center
Sat 09:42:32 PM 34.5892 -85.9564 40° Northeast 462 532 39,000  Level Atlanta Center
Sat 09:43:32 PM 34.6867 -85.8550 41° Northeast 462 532 39,000  Level Atlanta Center
Sat 09:44:32 PM 34.7906 -85.7461 41° Northeast 462 532 39,000  Level Atlanta Center
Sat 09:45:32 PM 34.8900 -85.6417 41° Northeast 457 526 39,000  Level Atlanta Center
Sat 09:46:32 PM 34.9872 -85.5397 41° Northeast 462 532 39,000  Level Atlanta Center
Sat 09:47:32 PM 35.0867 -85.4347 41° Northeast 462 532 39,000  Level Atlanta Center
Sat 09:48:32 PM 35.1836 -85.3297 42° Northeast 462 532 39,000  Level Atlanta Center
Sat 09:49:32 PM 35.2828 -85.2244 41° Northeast 462 532 39,000  Level Atlanta Center
Sat 09:50:32 PM 35.3797 -85.1189 42° Northeast 462 532 39,000  Level Atlanta Center
Sat 09:51:32 PM 35.4808 -85.0131 40° Northeast 462 532 39,000  Level Atlanta Center
Sat 09:52:32 PM 35.5756 -84.9094 42° Northeast 462 532 39,000  Level Atlanta Center
Sat 09:53:32 PM 35.6722 -84.8031 42° Northeast 462 532 39,000  Level Atlanta Center
Sat 09:54:32 PM 35.7625 -84.7042 42° Northeast 470 541 39,000  Level Atlanta Center
Sat 09:56:27 PM 35.9589 -84.4936 41° Northeast 466 536 39,000 -68 Level Indianapolis Center
Sat 09:57:28 PM 36.0539 -84.3900 41° Northeast 460 529 38,800 -595 Descending Indianapolis Center
Sat 09:58:28 PM 36.1486 -84.2844 42° Northeast 460 529 37,800 -893 Descending Indianapolis Center
Sat 09:59:29 PM 36.2469 -84.1775 41° Northeast 469 540 37,000 -393 Descending Indianapolis Center
Sat 10:00:30 PM 36.3469 -84.0681 41° Northeast 477 549 37,000  Level Indianapolis Center
Sat 10:01:30 PM 36.4461 -83.9569 42° Northeast 482 555 37,000  Level Indianapolis Center
Sat 10:02:31 PM 36.5475 -83.8444 42° Northeast 479 551 37,000  Level Indianapolis Center
Sat 10:03:31 PM 36.6556 -83.7492 35° Northeast 470 541 37,000 -595 Level Indianapolis Center
Sat 10:04:32 PM 36.7633 -83.6583 34° Northeast 467 537 35,800 -992 Descending Indianapolis Center
Sat 10:05:32 PM 36.8717 -83.5700 33° Northeast 463 533 35,000 -397 Descending Indianapolis Center
Sat 10:06:33 PM 36.9786 -83.4811 34° Northeast 460 529 35,000  Level Indianapolis Center
Sat 10:07:33 PM 37.0847 -83.3914 34° Northeast 457 526 35,000  Level Indianapolis Center
Sat 10:08:34 PM 37.1911 -83.3019 34° Northeast 454 522 35,000  Level Indianapolis Center
Sat 10:09:34 PM 37.2967 -83.2144 33° Northeast 450 518 35,000  Level Indianapolis Center
Sat 10:10:35 PM 37.4000 -83.1269 34° Northeast 445 512 35,000  Level Indianapolis Center
Sat 10:11:35 PM 37.5019 -83.0403 34° Northeast 441 507 35,000  Level Indianapolis Center
Sat 10:12:35 PM 37.6044 -82.9522 34° Northeast 443 510 35,000  Level Indianapolis Center
Sat 10:13:36 PM 37.7075 -82.8633 34° Northeast 444 511 35,000  Level Indianapolis Center
Sat 10:14:36 PM 37.8119 -82.7758 33° Northeast 448 516 35,000  Level Indianapolis Center
Sat 10:15:37 PM 37.9167 -82.6856 34° Northeast 453 521 35,000 -149 Level Indianapolis Center
Sat 10:16:37 PM 38.0225 -82.5947 34° Northeast 457 526 34,700 -694 Descending Indianapolis Center
Sat 10:17:38 PM 38.1269 -82.5036 34° Northeast 453 521 33,600 -992 Descending Indianapolis Center
Sat 10:18:38 PM 38.2169 -82.4236 35° Northeast 448 516 32,700 -950 Descending Indianapolis Center
Sat 10:19:38 PM 38.3181 -82.3386 33° Northeast 438 504 31,700 -992 Descending Indianapolis Center
Sat 10:20:39 PM 38.4175 -82.2525 34° Northeast 432 497 30,700 -992 Descending Indianapolis Center
Sat 10:21:39 PM 38.5186 -82.1631 35° Northeast 437 503 29,700 -992 Descending Indianapolis Center
Sat 10:22:40 PM 38.6231 -82.0722 34° Northeast 448 516 28,700 -992 Descending Indianapolis Center
Sat 10:23:40 PM 38.7294 -81.9792 34° Northeast 457 526 27,700 -850 Descending Indianapolis Center
Sat 10:24:40 PM 38.8353 -81.8844 35° Northeast 456 525 27,000 -347 Descending Indianapolis Center
Sat 10:25:41 PM 38.9411 -81.7911 34° Northeast 455 524 27,000  Level Indianapolis Center
Sat 10:26:41 PM 39.0469 -81.6978 34° Northeast 455 524 27,000 -50 Level Indianapolis Center
Sat 10:27:42 PM 39.1514 -81.6033 35° Northeast 455 524 26,900 -50 Descending Indianapolis Center
Sat 10:28:42 PM 39.2561 -81.5083 35° Northeast 457 526 26,900 50 Level Indianapolis Center
Sat 10:29:42 PM 39.3608 -81.4133 35° Northeast 458 527 27,000 -1,686 Climbing Indianapolis Center
Sat 10:30:43 PM 39.4622 -81.3231 34° Northeast 444 511 23,500 -2,975 Descending Indianapolis Center
Sat 10:31:43 PM 39.5589 -81.2353 35° Northeast 428 493 21,000 -1,500 Descending Indianapolis Center
Sat 10:32:43 PM 39.6436 -81.1592 35° Northeast 373 429 20,500 -545 Descending Indianapolis Center
Sat 10:33:44 PM 39.7283 -81.0806 36° Northeast 373 429 19,900 -793 Descending Indianapolis Center
Sat 10:34:44 PM 39.8172 -80.9986 35° Northeast 388 447 18,900 -1,636 Descending Indianapolis Center
Sat 10:35:45 PM 39.9081 -80.9150 35° Northeast 397 457 16,600 -2,486 Descending Indianapolis Center
Sat 10:36:35 PM 39.9878 -80.8406 36° Northeast 380 437 14,300 -2,727 Descending Cleveland Center
Sat 10:37:35 PM 40.0483 -80.7269 55° Northeast 369 425 11,600 -2,150 Descending Cleveland Center
Sat 10:38:35 PM 40.1047 -80.6183 56° Northeast 369 425 10,000 -800 Descending Cleveland Center
Sat 10:39:35 PM 40.1567 -80.5342 51° Northeast 338 389 10,000  Level Cleveland Center
Sat 10:40:35 PM 40.2067 -80.4553 50° Northeast 299 344 10,000 -200 Level Cleveland Center
Sat 10:41:35 PM 40.2547 -80.3764 51° Northeast 275 316 9,600 -1,050 Descending Cleveland Center
Sat 10:42:35 PM 40.3044 -80.3000 50° Northeast 252 290 7,900 -1,750 Descending Cleveland Center
Sat 10:43:35 PM 40.3481 -80.2261 52° Northeast 245 282 6,100 -1,500 Descending Cleveland Center
Sat 10:44:35 PM 40.3853 -80.1714 48° Northeast 240 276 4,900 -1,200 Descending Cleveland Center

Login

Don't have an account? Register now (free) for customized features, flight alerts, and more!